Time;durP1;ratioP1;P1;durP2;ratioP2;P2;SDS_P1;SDS_P2;PMS_P1;PMS_P2;Temp;Humidity;BMP_temperature;BMP_pressure;BME280_temperature;BME280_humidity;BME280_pressure;Samples;Min_cycle;Max_cycle;Signal;HPM_P1;HPM_P2
2023/03/31 00:01:05;;;;;;;5.03;2.03;;;13.20;99.90;;;;;;4996895;28;20443;-87
2023/03/31 00:03:37;;;;;;;4.37;1.97;;;13.20;99.90;;;;;;4996256;28;20419;-84
2023/03/31 00:06:06;;;;;;;4.30;1.80;;;13.20;99.90;;;;;;4996375;28;20455;-86
2023/03/31 00:08:34;;;;;;;5.60;1.90;;;13.20;99.90;;;;;;4996024;28;20759;-86
2023/03/31 00:11:06;;;;;;;3.07;1.80;;;13.20;99.90;;;;;;4996480;28;20465;-87
2023/03/31 00:13:35;;;;;;;4.53;1.80;;;13.20;99.90;;;;;;4996583;28;20503;-86
2023/03/31 00:16:04;;;;;;;4.73;2.00;;;13.20;99.90;;;;;;4995858;28;20437;-86
2023/03/31 00:18:33;;;;;;;3.20;1.77;;;13.20;99.90;;;;;;4996023;28;20457;-87
2023/03/31 00:21:08;;;;;;;3.60;2.00;;;13.20;99.90;;;;;;4996783;28;20425;-86
2023/03/31 00:23:34;;;;;;;3.77;1.53;;;13.20;99.90;;;;;;4995301;28;20490;-87
2023/03/31 00:26:05;;;;;;;3.50;1.73;;;13.20;99.90;;;;;;4996354;28;20423;-86
2023/03/31 00:28:31;;;;;;;4.23;2.10;;;13.20;99.90;;;;;;5011530;28;20439;-86
2023/03/31 00:31:02;;;;;;;2.33;1.80;;;13.10;99.90;;;;;;4996121;28;20481;-86
2023/03/31 00:33:28;;;;;;;4.50;1.57;;;13.20;99.90;;;;;;4992217;28;20493;-86
2023/03/31 00:35:54;;;;;;;2.90;1.63;;;13.10;99.90;;;;;;4995385;28;20753;-87
2023/03/31 00:38:20;;;;;;;3.60;1.80;;;13.10;99.90;;;;;;5011804;28;20425;-86
2023/03/31 00:40:49;;;;;;;3.67;1.93;;;13.10;99.90;;;;;;4996307;28;20436;-86
2023/03/31 00:43:38;;;;;;;2.70;1.37;;;13.10;99.90;;;;;;4978912;28;20459;-86
2023/03/31 00:46:30;;;;;;;4.23;1.60;;;13.10;99.90;;;;;;5011596;28;20401;-86
2023/03/31 00:48:57;;;;;;;3.80;1.53;;;13.10;99.90;;;;;;4979308;28;20429;-86
2023/03/31 00:51:27;;;;;;;4.23;1.47;;;13.10;99.90;;;;;;4994873;28;20464;-86
2023/03/31 00:53:59;;;;;;;2.53;1.80;;;13.10;99.90;;;;;;4979464;28;20483;-87
2023/03/31 00:56:36;;;;;;;4.57;1.47;;;13.10;99.90;;;;;;4991868;28;20466;-87
2023/03/31 00:59:06;;;;;;;4.37;2.33;;;13.10;99.90;;;;;;5008379;28;20443;-86
2023/03/31 01:01:34;;;;;;;4.03;1.60;;;13.10;99.90;;;;;;5011234;28;20515;-87
2023/03/31 01:04:02;;;;;;;5.23;2.03;;;13.10;99.90;;;;;;4995084;28;20508;-86
2023/03/31 01:06:33;;;;;;;3.40;1.77;;;13.10;99.90;;;;;;4994893;28;20435;-87
2023/03/31 01:09:05;;;;;;;6.10;1.63;;;13.10;99.90;;;;;;4991543;28;20452;-86
2023/03/31 01:11:33;;;;;;;2.97;1.53;;;13.10;99.90;;;;;;4993502;28;20816;-87
2023/03/31 01:14:02;;;;;;;3.83;1.80;;;13.10;99.90;;;;;;4994521;28;20436;-87
2023/03/31 01:16:32;;;;;;;3.83;1.70;;;13.10;99.90;;;;;;4994789;28;20436;-86
2023/03/31 01:19:06;;;;;;;3.97;2.20;;;13.10;99.90;;;;;;4979088;28;20432;-86
2023/03/31 01:21:58;;;;;;;2.50;1.50;;;13.10;99.90;;;;;;4978091;28;20902;-87
2023/03/31 01:24:46;;;;;;;2.13;1.40;;;13.10;99.90;;;;;;4995530;28;20428;-87
2023/03/31 01:27:30;;;;;;;3.73;2.07;;;13.00;99.90;;;;;;4994023;28;20459;-86
2023/03/31 01:30:28;;;;;;;5.40;1.77;;;13.00;99.90;;;;;;4995535;28;20420;-87
2023/03/31 01:33:11;;;;;;;2.30;1.67;;;13.00;99.90;;;;;;4979208;28;20571;-86
2023/03/31 01:35:57;;;;;;;3.90;1.80;;;13.00;99.90;;;;;;4978398;28;20423;-87
2023/03/31 01:38:56;;;;;;;5.87;1.40;;;13.00;99.90;;;;;;4987239;28;20446;-87
2023/03/31 01:41:39;;;;;;;5.00;2.10;;;13.00;99.90;;;;;;5008468;28;20519;-87
2023/03/31 01:44:16;;;;;;;2.53;1.60;;;13.00;99.90;;;;;;4994077;28;20420;-87
2023/03/31 01:47:03;;;;;;;2.10;1.63;;;13.00;99.90;;;;;;4990906;28;20446;-87
2023/03/31 01:49:45;;;;;;;4.60;1.90;;;13.00;99.90;;;;;;4980654;28;20434;-87
2023/03/31 01:52:23;;;;;;;4.53;1.67;;;13.00;99.90;;;;;;4994742;28;20937;-86
2023/03/31 01:55:05;;;;;;;3.73;1.50;;;13.00;99.90;;;;;;4977939;28;20425;-87
2023/03/31 01:57:38;;;;;;;3.53;1.50;;;13.00;99.90;;;;;;4994104;28;20536;-88
2023/03/31 02:00:28;;;;;;;3.53;1.57;;;13.00;99.90;;;;;;5010476;28;20429;-87
2023/03/31 02:03:11;;;;;;;3.20;1.50;;;13.00;99.90;;;;;;4978729;28;20773;-87
2023/03/31 02:05:43;;;;;;;5.00;1.80;;;12.90;99.90;;;;;;4993981;28;20465;-86
2023/03/31 02:08:27;;;;;;;5.50;1.70;;;12.90;99.90;;;;;;4995098;28;20438;-87
2023/03/31 02:10:53;;;;;;;4.10;1.47;;;12.90;99.90;;;;;;4994660;28;20549;-86
2023/03/31 02:13:22;;;;;;;3.50;1.60;;;12.90;99.90;;;;;;4985840;28;20531;-87
2023/03/31 02:15:53;;;;;;;2.30;1.47;;;12.90;99.90;;;;;;4998118;28;20420;-88
2023/03/31 02:18:25;;;;;;;3.00;1.90;;;12.90;99.90;;;;;;5013944;28;20431;-87
2023/03/31 02:20:57;;;;;;;4.30;1.70;;;12.90;99.90;;;;;;4998781;28;20452;-87
2023/03/31 02:23:28;;;;;;;2.13;1.43;;;12.90;99.90;;;;;;4997819;28;20448;-86
2023/03/31 02:26:10;;;;;;;2.30;2.07;;;12.90;99.90;;;;;;4997961;28;20424;-88
2023/03/31 02:28:39;;;;;;;6.17;2.40;;;12.90;99.90;;;;;;4997982;28;20885;-87
2023/03/31 02:31:42;;;;;;;7.93;2.30;;;12.90;99.90;;;;;;4981368;28;20465;-86
2023/03/31 02:34:09;;;;;;;8.33;2.03;;;12.90;99.90;;;;;;4978096;28;20457;-87
2023/03/31 02:36:35;;;;;;;3.63;2.07;;;12.90;99.90;;;;;;4967498;28;20555;-87
2023/03/31 02:39:08;;;;;;;5.53;2.10;;;12.90;99.90;;;;;;4997946;28;20453;-88
2023/03/31 02:41:34;;;;;;;4.90;1.90;;;12.90;99.90;;;;;;4980149;28;20460;-87
2023/03/31 02:44:05;;;;;;;6.47;2.10;;;12.90;99.90;;;;;;4997241;28;20958;-86
2023/03/31 02:46:34;;;;;;;6.73;2.00;;;12.90;99.90;;;;;;4981534;28;20445;-87
2023/03/31 02:49:07;;;;;;;5.80;2.13;;;12.90;99.90;;;;;;4994030;28;20449;-87
2023/03/31 02:52:02;;;;;;;6.80;1.93;;;12.80;99.90;;;;;;4994286;28;20456;-87
2023/03/31 02:54:30;;;;;;;3.80;2.00;;;12.80;99.90;;;;;;4996885;28;20467;-88
2023/03/31 02:57:05;;;;;;;5.90;2.00;;;12.80;99.90;;;;;;4997345;28;20440;-87
2023/03/31 02:59:50;;;;;;;5.30;1.80;;;12.80;99.90;;;;;;4997014;28;20425;-87
2023/03/31 03:02:40;;;;;;;3.90;1.70;;;12.80;99.90;;;;;;4997404;28;20413;-88
2023/03/31 03:05:25;;;;;;;6.77;2.40;;;12.80;99.90;;;;;;4980875;28;20812;-88
2023/03/31 03:08:33;;;;;;;8.10;2.50;;;12.80;99.90;;;;;;4996931;28;20456;-88
2023/03/31 03:11:18;;;;;;;4.47;2.00;;;12.80;99.90;;;;;;4996781;28;20456;-85
2023/03/31 03:13:46;;;;;;;6.73;2.00;;;12.80;99.90;;;;;;5013095;28;20439;-87
2023/03/31 03:16:25;;;;;;;3.63;2.27;;;12.80;99.90;;;;;;4996743;28;20430;-88
2023/03/31 03:19:02;;;;;;;5.67;2.00;;;12.80;99.90;;;;;;4996901;28;20461;-87
2023/03/31 03:21:31;;;;;;;3.60;1.73;;;12.80;99.90;;;;;;4996066;28;20535;-88
2023/03/31 03:24:01;;;;;;;6.73;2.40;;;12.80;99.90;;;;;;4981121;28;20468;-87
2023/03/31 03:26:27;;;;;;;3.20;1.90;;;12.80;99.90;;;;;;4996942;28;20478;-88
2023/03/31 03:28:57;;;;;;;3.90;2.10;;;12.80;99.90;;;;;;4980048;28;20190;-86
2023/03/31 03:31:26;;;;;;;6.10;2.37;;;12.80;99.90;;;;;;4993980;28;20485;-86
2023/03/31 03:33:52;;;;;;;8.27;2.23;;;12.80;99.90;;;;;;4980227;28;20495;-87
2023/03/31 03:36:18;;;;;;;5.43;2.50;;;12.80;99.90;;;;;;4996764;28;20448;-86
2023/03/31 03:38:44;;;;;;;5.17;2.03;;;12.80;99.90;;;;;;5012472;28;20448;-86
2023/03/31 03:41:13;;;;;;;5.63;2.30;;;12.80;99.90;;;;;;4997473;28;20450;-87
2023/03/31 03:43:38;;;;;;;4.30;1.97;;;12.80;99.90;;;;;;5012493;28;20566;-87
2023/03/31 03:46:09;;;;;;;7.27;2.63;;;12.80;99.90;;;;;;4996414;28;20444;-87
2023/03/31 03:48:35;;;;;;;4.37;2.57;;;12.80;99.90;;;;;;4996019;28;20284;-87
2023/03/31 03:51:05;;;;;;;5.73;2.00;;;12.80;99.90;;;;;;4996259;28;20478;-88
2023/03/31 03:53:31;;;;;;;4.57;2.00;;;12.80;99.90;;;;;;5012748;28;20433;-87
2023/03/31 03:55:58;;;;;;;5.03;2.10;;;12.80;99.90;;;;;;4995823;28;20464;-87
2023/03/31 03:58:24;;;;;;;3.20;2.20;;;12.80;99.90;;;;;;4997159;28;20441;-88
2023/03/31 04:00:50;;;;;;;6.60;2.23;;;12.80;99.90;;;;;;4996119;28;20776;-86
2023/03/31 04:03:16;;;;;;;4.73;2.47;;;12.80;99.90;;;;;;4995831;28;20462;-87
2023/03/31 04:05:44;;;;;;;4.07;2.40;;;12.70;99.90;;;;;;5012411;28;20414;-86
2023/03/31 04:08:13;;;;;;;6.03;2.50;;;12.70;99.90;;;;;;4996715;28;20451;-85
2023/03/31 04:10:47;;;;;;;4.70;1.90;;;12.70;99.90;;;;;;5011711;28;20462;-87
2023/03/31 04:13:20;;;;;;;4.40;2.50;;;12.70;99.90;;;;;;4996595;28;20533;-87
2023/03/31 04:15:45;;;;;;;7.03;2.40;;;12.70;99.90;;;;;;4996205;28;20840;-87
2023/03/31 04:18:21;;;;;;;5.80;2.50;;;12.70;99.90;;;;;;4996717;28;20511;-86
2023/03/31 04:20:53;;;;;;;5.23;2.30;;;12.70;99.90;;;;;;4976449;28;20585;-86
2023/03/31 04:23:25;;;;;;;5.57;2.73;;;12.70;99.90;;;;;;4990913;28;20459;-88
2023/03/31 04:25:51;;;;;;;7.57;2.23;;;12.70;99.90;;;;;;4994514;28;20511;-87
2023/03/31 04:28:21;;;;;;;7.00;3.10;;;12.70;99.90;;;;;;4995562;28;20455;-87
2023/03/31 04:30:47;;;;;;;6.03;2.20;;;12.70;99.90;;;;;;4995648;28;20556;-88
2023/03/31 04:33:14;;;;;;;9.03;2.80;;;12.70;99.90;;;;;;4995462;28;20461;-88
2023/03/31 04:35:51;;;;;;;5.67;2.17;;;12.70;99.90;;;;;;4996411;28;20433;-88
2023/03/31 04:38:22;;;;;;;6.13;2.90;;;12.70;99.90;;;;;;4996411;28;20397;-88
2023/03/31 04:40:50;;;;;;;6.50;2.60;;;12.70;99.90;;;;;;4979649;28;20437;-87
2023/03/31 04:43:17;;;;;;;6.70;2.50;;;12.70;99.90;;;;;;5012011;28;20808;-88
2023/03/31 04:45:44;;;;;;;9.03;2.53;;;12.70;99.90;;;;;;4995225;28;20461;-88
2023/03/31 04:48:13;;;;;;;10.23;2.17;;;12.70;99.90;;;;;;4995052;28;20499;-87
2023/03/31 04:50:44;;;;;;;12.20;2.70;;;12.70;99.90;;;;;;4995785;28;20458;-87
2023/03/31 04:53:10;;;;;;;8.37;2.50;;;12.70;99.90;;;;;;4995806;28;20483;-86
2023/03/31 04:55:38;;;;;;;5.63;2.20;;;12.70;99.90;;;;;;4996010;28;20417;-87
2023/03/31 04:58:04;;;;;;;7.87;3.10;;;12.70;99.90;;;;;;4994567;28;20459;-88
2023/03/31 05:00:34;;;;;;;8.40;2.90;;;12.60;99.90;;;;;;4995858;28;20620;-86
2023/03/31 05:05:49;;;;;;;5.80;2.50;;;12.60;99.90;;;;;;4995761;28;20440;-86
2023/03/31 05:08:15;;;;;;;6.73;2.40;;;12.60;99.90;;;;;;4991182;28;20909;-86
2023/03/31 05:10:41;;;;;;;4.90;2.20;;;12.60;99.90;;;;;;4994608;28;20511;-87
2023/03/31 05:13:09;;;;;;;5.53;2.23;;;12.60;99.90;;;;;;4978790;28;20506;-88
2023/03/31 05:15:38;;;;;;;7.10;2.10;;;12.60;99.90;;;;;;4995051;28;20438;-87
2023/03/31 05:18:04;;;;;;;4.50;2.53;;;12.60;99.90;;;;;;4994883;28;20759;-87
2023/03/31 05:20:30;;;;;;;5.43;2.47;;;12.60;99.90;;;;;;4994874;28;20459;-86
2023/03/31 05:22:56;;;;;;;5.50;2.73;;;12.60;99.90;;;;;;4970236;28;20568;-85
2023/03/31 05:25:22;;;;;;;5.37;2.00;;;12.60;99.90;;;;;;5000192;28;20431;-86
2023/03/31 05:27:49;;;;;;;4.20;2.17;;;12.60;99.90;;;;;;4994170;28;20796;-85
2023/03/31 05:30:20;;;;;;;7.37;2.60;;;12.60;99.90;;;;;;4978843;28;20482;-86
2023/03/31 05:32:46;;;;;;;4.10;1.70;;;12.60;99.90;;;;;;4993739;28;20564;-86
2023/03/31 05:35:12;;;;;;;7.60;2.60;;;12.60;99.90;;;;;;5008844;28;20530;-86
2023/03/31 05:37:42;;;;;;;5.70;2.40;;;12.60;99.90;;;;;;4993009;28;20450;-85
2023/03/31 05:40:14;;;;;;;5.60;1.83;;;12.60;99.90;;;;;;5004283;28;20445;-85
2023/03/31 05:42:45;;;;;;;6.33;2.30;;;12.60;99.90;;;;;;4977543;28;20435;-85
2023/03/31 05:45:13;;;;;;;8.53;2.27;;;12.60;99.90;;;;;;4994448;28;20407;-85
2023/03/31 05:47:39;;;;;;;6.13;2.47;;;12.50;99.90;;;;;;4994189;28;20446;-87
2023/03/31 05:50:08;;;;;;;5.83;2.27;;;12.50;99.90;;;;;;4992376;28;21096;-85
2023/03/31 05:52:35;;;;;;;4.37;2.40;;;12.50;99.90;;;;;;4994659;28;20493;-86
2023/03/31 05:55:04;;;;;;;4.73;2.50;;;12.50;99.90;;;;;;5010353;28;20468;-87
2023/03/31 05:57:30;;;;;;;5.67;2.10;;;12.50;99.90;;;;;;4994112;28;20451;-85
2023/03/31 06:00:32;;;;;;;5.63;2.00;;;12.50;99.90;;;;;;4994249;28;20440;-86
2023/03/31 06:02:58;;;;;;;3.97;1.80;;;12.50;99.90;;;;;;4934876;29;20446;-86
2023/03/31 06:05:36;;;;;;;4.00;2.23;;;12.50;99.90;;;;;;4942432;28;20436;-86
2023/03/31 06:08:15;;;;;;;8.23;2.50;;;12.50;99.90;;;;;;4994452;28;20423;-85
2023/03/31 06:11:11;;;;;;;4.13;1.87;;;12.50;99.90;;;;;;4993975;28;20483;-85
2023/03/31 06:13:38;;;;;;;6.73;2.37;;;12.50;99.90;;;;;;4993492;28;20450;-86
2023/03/31 06:16:09;;;;;;;4.27;2.20;;;12.50;99.90;;;;;;4993306;28;20864;-88
2023/03/31 06:18:35;;;;;;;5.67;2.00;;;12.50;99.90;;;;;;4976664;28;20940;-87
2023/03/31 06:21:05;;;;;;;3.73;2.20;;;12.50;99.90;;;;;;4995425;28;20438;-86
2023/03/31 06:23:33;;;;;;;4.53;1.97;;;12.50;99.90;;;;;;5006490;28;20773;-87
2023/03/31 06:26:02;;;;;;;5.83;2.20;;;12.50;99.90;;;;;;4991050;28;20958;-87
2023/03/31 06:28:30;;;;;;;5.07;2.23;;;12.50;99.90;;;;;;4986709;28;20790;-86
2023/03/31 06:31:00;;;;;;;5.43;1.90;;;12.50;99.90;;;;;;4995537;28;20463;-87
2023/03/31 06:33:26;;;;;;;11.87;2.00;;;12.50;99.90;;;;;;4995886;28;20538;-86
2023/03/31 06:35:56;;;;;;;8.30;2.00;;;12.50;99.90;;;;;;4995318;28;20427;-89
2023/03/31 06:38:22;;;;;;;3.43;2.60;;;12.50;99.90;;;;;;4995624;28;20424;-88
2023/03/31 06:40:51;;;;;;;5.00;2.33;;;12.50;99.90;;;;;;4996154;28;20440;-89
2023/03/31 06:43:16;;;;;;;3.80;2.67;;;12.50;99.90;;;;;;4995289;28;20440;-87
2023/03/31 06:45:42;;;;;;;3.50;2.00;;;12.50;99.90;;;;;;4995557;28;20430;-90
2023/03/31 06:48:08;;;;;;;4.67;2.30;;;12.50;99.90;;;;;;4995978;28;20435;-88
2023/03/31 06:50:43;;;;;;;6.47;2.00;;;12.50;99.90;;;;;;4980463;28;20495;-93
2023/03/31 06:53:09;;;;;;;3.17;2.03;;;12.50;99.90;;;;;;4995304;28;20531;-93
2023/03/31 06:55:36;;;;;;;4.50;1.70;;;12.50;99.90;;;;;;4995280;28;20492;-92
2023/03/31 06:58:03;;;;;;;3.53;2.10;;;12.50;99.90;;;;;;5000346;28;20430;-94
2023/03/31 07:00:30;;;;;;;4.70;2.17;;;12.50;99.90;;;;;;4997987;28;20462;-90
2023/03/31 07:02:56;;;;;;;4.80;2.00;;;12.50;99.90;;;;;;4978985;28;20434;-93
2023/03/31 07:05:27;;;;;;;4.47;1.70;;;12.50;99.90;;;;;;4995243;28;20495;-93
2023/03/31 07:07:54;;;;;;;6.47;2.07;;;12.50;99.90;;;;;;4998410;28;20887;-92
2023/03/31 07:10:21;;;;;;;3.93;1.67;;;12.40;99.90;;;;;;4999096;28;20460;-94
2023/03/31 07:12:48;;;;;;;3.20;1.93;;;12.40;99.90;;;;;;4995497;28;20481;-88
2023/03/31 07:15:14;;;;;;;3.10;1.50;;;12.40;99.90;;;;;;5010624;28;20441;-90
2023/03/31 07:17:41;;;;;;;4.27;2.00;;;12.50;99.90;;;;;;4997730;28;20427;-87
2023/03/31 07:20:11;;;;;;;3.30;1.90;;;12.40;99.90;;;;;;4997727;28;20426;-87
2023/03/31 07:22:40;;;;;;;3.70;2.13;;;12.40;99.90;;;;;;4993982;28;20424;-89
2023/03/31 07:25:10;;;;;;;4.23;1.73;;;12.40;99.90;;;;;;4997139;28;20873;-88
2023/03/31 07:27:36;;;;;;;5.63;2.00;;;12.40;99.90;;;;;;4996328;28;20761;-89
2023/03/31 07:30:11;;;;;;;3.83;2.20;;;12.40;99.90;;;;;;4996737;28;20466;-87
2023/03/31 07:32:40;;;;;;;3.27;1.57;;;12.40;99.90;;;;;;4997073;28;20559;-88
2023/03/31 07:35:07;;;;;;;3.13;1.83;;;12.40;99.90;;;;;;4997284;28;20455;-89
2023/03/31 07:37:42;;;;;;;4.13;2.37;;;12.40;99.90;;;;;;4997071;28;20801;-88
2023/03/31 07:40:11;;;;;;;4.03;1.90;;;12.40;99.90;;;;;;4996328;28;20451;-87
2023/03/31 07:42:37;;;;;;;4.20;2.83;;;12.40;99.90;;;;;;5012340;28;20783;-88
2023/03/31 07:45:06;;;;;;;2.70;1.97;;;12.40;99.90;;;;;;4979713;28;20442;-88
2023/03/31 07:47:32;;;;;;;4.70;2.00;;;12.40;99.90;;;;;;4996005;28;20450;-87
2023/03/31 07:50:00;;;;;;;4.00;2.10;;;12.40;99.90;;;;;;4997344;28;20419;-89
2023/03/31 07:52:26;;;;;;;5.13;1.83;;;12.40;99.90;;;;;;4997008;28;20558;-89
2023/03/31 07:54:52;;;;;;;5.30;1.60;;;12.40;99.90;;;;;;4976769;28;20437;-88
2023/03/31 07:57:20;;;;;;;2.70;1.73;;;12.40;99.90;;;;;;4996091;28;20456;-90
2023/03/31 07:59:51;;;;;;;5.47;2.53;;;12.40;99.90;;;;;;4997234;28;20732;-89
2023/03/31 08:02:19;;;;;;;2.47;1.80;;;12.40;99.90;;;;;;4995099;28;20434;-91
2023/03/31 08:04:46;;;;;;;6.73;2.70;;;12.40;99.90;;;;;;4995686;28;20520;-92
2023/03/31 08:07:15;;;;;;;3.03;1.80;;;12.40;99.90;;;;;;4998104;28;20824;-95
2023/03/31 08:09:48;;;;;;;2.30;1.80;;;12.40;99.90;;;;;;4982991;28;20441;-95
2023/03/31 08:12:17;;;;;;;2.73;1.97;;;12.40;99.90;;;;;;5005736;28;20469;-93
2023/03/31 08:14:42;;;;;;;3.40;2.00;;;12.40;99.90;;;;;;5008900;28;20444;-93
2023/03/31 08:17:46;;;;;;;;;;;;;;;;;;;;;
2023/03/31 08:20:38;;;;;;;5.50;2.63;;;12.40;99.90;;;;;;5013163;28;20495;-87
2023/03/31 08:23:07;;;;;;;3.73;2.20;;;12.40;99.90;;;;;;4981256;28;20962;-92
2023/03/31 08:25:34;;;;;;;7.43;2.30;;;12.40;99.90;;;;;;4980943;28;20776;-90
2023/03/31 08:28:00;;;;;;;4.17;2.03;;;12.40;99.90;;;;;;4997273;28;20426;-90
2023/03/31 08:30:26;;;;;;;3.20;1.90;;;12.40;99.90;;;;;;4997270;28;20450;-93
2023/03/31 08:33:50;;;;;;;3.90;2.07;;;12.40;99.90;;;;;;5012983;28;20446;-93
2023/03/31 08:36:16;;;;;;;7.10;2.03;;;12.40;99.90;;;;;;4994293;28;20438;-89
2023/03/31 08:38:45;;;;;;;13.50;2.00;;;12.40;99.90;;;;;;4993303;28;20434;-92
2023/03/31 08:41:43;;;;;;;5.10;2.10;;;12.40;99.90;;;;;;4994098;28;20442;-93
2023/03/31 08:44:22;;;;;;;2.83;1.87;;;12.40;99.90;;;;;;4993400;28;20428;-92
2023/03/31 08:46:51;;;;;;;6.67;2.00;;;12.40;99.90;;;;;;4996864;28;20532;-90
2023/03/31 08:49:36;;;;;;;5.37;2.10;;;12.40;99.90;;;;;;4989829;28;20923;-94
2023/03/31 08:55:48;;;;;;;4.50;1.87;;;12.40;99.90;;;;;;4983600;28;20480;-94
2023/03/31 09:02:33;;;;;;;5.23;2.03;;;12.70;99.90;;;;;;4982931;28;20425;-95
2023/03/31 09:05:48;;;;;;;5.90;2.47;;;12.40;99.90;;;;;;4981257;28;20435;-96
2023/03/31 09:16:59;;;;;;;3.37;2.00;;;12.50;99.90;;;;;;4999411;28;20508;-95
2023/03/31 09:24:31;;;;;;;7.37;3.10;;;12.50;99.90;;;;;;4995620;28;20429;-95
2023/03/31 09:27:27;;;;;;;5.13;2.00;;;12.50;99.90;;;;;;5001168;28;20447;-96
2023/03/31 09:30:31;;;;;;;11.27;2.50;;;12.50;99.90;;;;;;4979853;28;20543;-94
2023/03/31 09:33:14;;;;;;;6.63;2.40;;;12.50;99.90;;;;;;4991614;28;20462;-92
2023/03/31 09:35:40;;;;;;;9.40;2.33;;;12.70;99.90;;;;;;4977146;28;20761;-93
2023/03/31 09:38:10;;;;;;;13.07;2.40;;;12.50;99.90;;;;;;5002882;28;20461;-94
2023/03/31 09:41:00;;;;;;;7.73;2.70;;;12.60;99.90;;;;;;4982082;28;20465;-95
2023/03/31 09:43:48;;;;;;;6.40;2.23;;;12.60;99.90;;;;;;4993564;28;20456;-93
2023/03/31 09:47:11;;;;;;;;;;;;;;;;;;;;;
2023/03/31 09:50:42;;;;;;;7.80;2.70;;;12.60;99.90;;;;;;5010649;28;20432;-96
2023/03/31 09:53:52;;;;;;;6.87;2.43;;;12.60;99.90;;;;;;4992319;28;20457;-96
2023/03/31 09:56:45;;;;;;;8.93;2.97;;;12.60;99.90;;;;;;4976640;28;20437;-92
2023/03/31 09:59:35;;;;;;;8.60;2.67;;;12.60;99.90;;;;;;4995879;28;20481;-92
2023/03/31 10:03:17;;;;;;;6.03;2.60;;;12.60;99.90;;;;;;4995063;28;20826;-94
2023/03/31 10:06:17;;;;;;;7.43;2.60;;;12.60;99.90;;;;;;4983750;28;20535;-96
2023/03/31 10:09:01;;;;;;;12.20;3.07;;;12.70;99.90;;;;;;4972643;28;20513;-96
2023/03/31 10:11:28;;;;;;;8.87;3.70;;;12.70;99.90;;;;;;4980330;28;20479;-93
2023/03/31 10:14:01;;;;;;;12.60;3.30;;;12.70;99.90;;;;;;4992674;28;20580;-93
2023/03/31 10:16:47;;;;;;;12.67;2.90;;;12.70;99.90;;;;;;4994242;28;20493;-96
2023/03/31 10:19:28;;;;;;;7.23;2.70;;;12.70;99.90;;;;;;4996163;28;20456;-91
2023/03/31 10:22:12;;;;;;;6.33;2.80;;;12.70;99.90;;;;;;4977483;28;20472;-94
2023/03/31 10:24:41;;;;;;;8.60;2.80;;;12.70;99.90;;;;;;5015857;23;20509;-73
2023/03/31 10:27:19;;;;;;;11.73;3.07;;;12.70;99.90;;;;;;4989822;28;20463;-74
2023/03/31 10:29:45;;;;;;;7.70;2.90;;;12.70;99.90;;;;;;4976104;28;20443;-73
2023/03/31 10:32:24;;;;;;;7.33;2.80;;;12.80;99.90;;;;;;4991743;28;20445;-74
2023/03/31 10:34:52;;;;;;;12.30;3.73;;;12.80;99.90;;;;;;4995110;28;20434;-73
2023/03/31 10:37:24;;;;;;;8.40;3.50;;;12.80;99.90;;;;;;4995019;28;20460;-74
2023/03/31 10:40:37;;;;;;;8.90;3.00;;;12.80;99.90;;;;;;5005458;28;20530;-76
2023/03/31 10:43:17;;;;;;;6.80;2.57;;;12.80;99.90;;;;;;4988654;28;20456;-75
2023/03/31 10:45:53;;;;;;;7.23;2.37;;;12.80;99.90;;;;;;5024488;28;20432;-76
2023/03/31 10:48:23;;;;;;;9.90;2.47;;;12.90;99.90;;;;;;5030441;28;20403;-76
2023/03/31 10:50:49;;;;;;;9.67;2.30;;;12.90;99.90;;;;;;5020624;28;20510;-76
2023/03/31 10:53:17;;;;;;;12.60;3.60;;;12.90;99.90;;;;;;4995201;28;20434;-74
2023/03/31 10:56:07;;;;;;;9.30;2.23;;;12.90;99.90;;;;;;5017818;28;20456;-75
2023/03/31 10:58:44;;;;;;;6.93;2.97;;;12.90;99.90;;;;;;4994655;28;20435;-75
2023/03/31 11:01:38;;;;;;;10.53;2.63;;;12.90;99.90;;;;;;5005866;28;20462;-75
2023/03/31 11:04:42;;;;;;;5.63;2.23;;;12.90;99.90;;;;;;5005254;28;20447;-75
2023/03/31 11:07:15;;;;;;;7.53;2.77;;;12.90;99.90;;;;;;4991574;28;20446;-76
2023/03/31 11:09:59;;;;;;;7.10;1.70;;;12.80;99.90;;;;;;5017418;28;20457;-75
2023/03/31 11:12:57;;;;;;;3.80;1.60;;;12.80;99.90;;;;;;5001242;28;20992;-75
2023/03/31 11:15:45;;;;;;;4.43;2.17;;;12.80;99.90;;;;;;4994380;28;21091;-76
2023/03/31 11:18:14;;;;;;;4.30;3.27;;;12.80;99.90;;;;;;4997221;28;20450;-78
2023/03/31 11:21:04;;;;;;;6.30;2.00;;;12.80;99.90;;;;;;5006666;28;20452;-76
2023/03/31 11:23:42;;;;;;;6.83;1.70;;;12.80;99.90;;;;;;5015049;28;20466;-76
2023/03/31 11:26:17;;;;;;;6.20;1.90;;;12.80;99.90;;;;;;4998375;28;20480;-76
2023/03/31 11:29:11;;;;;;;7.10;1.70;;;12.80;99.90;;;;;;4976358;28;20408;-79
2023/03/31 11:32:08;;;;;;;6.47;3.03;;;12.80;99.90;;;;;;5000171;28;20468;-76
2023/03/31 11:35:03;;;;;;;7.33;2.27;;;12.80;99.90;;;;;;5014201;28;20849;-77
2023/03/31 11:37:36;;;;;;;5.67;1.67;;;12.80;99.90;;;;;;4998899;28;20790;-76
2023/03/31 11:40:17;;;;;;;3.30;1.47;;;12.80;99.90;;;;;;5006812;28;20462;-76
2023/03/31 11:42:52;;;;;;;6.50;2.03;;;12.80;99.90;;;;;;4992434;28;20434;-76
2023/03/31 11:45:27;;;;;;;2.80;1.47;;;12.80;99.90;;;;;;4985176;28;20466;-77
2023/03/31 11:48:02;;;;;;;4.10;1.70;;;12.80;99.90;;;;;;4997651;28;20469;-77
2023/03/31 11:50:38;;;;;;;6.30;2.43;;;12.90;99.90;;;;;;5024683;28;20485;-77
2023/03/31 11:53:10;;;;;;;7.27;2.20;;;12.90;99.90;;;;;;4990676;28;20440;-75
2023/03/31 11:55:38;;;;;;;4.40;1.60;;;12.90;99.90;;;;;;4993697;28;20783;-76
2023/03/31 11:58:11;;;;;;;5.93;2.00;;;12.90;99.90;;;;;;4996772;28;20439;-76
2023/03/31 12:00:46;;;;;;;4.83;2.50;;;12.90;99.90;;;;;;5007193;28;20436;-76
2023/03/31 12:03:20;;;;;;;3.90;2.20;;;12.90;99.90;;;;;;4991622;28;20432;-76
2023/03/31 12:06:18;;;;;;;6.20;1.73;;;12.90;99.90;;;;;;4981315;28;20421;-76
2023/03/31 12:09:03;;;;;;;6.43;1.90;;;12.90;99.90;;;;;;4999079;28;20420;-76
2023/03/31 12:11:41;;;;;;;6.77;2.23;;;13.00;99.90;;;;;;4994165;28;21001;-76
2023/03/31 12:14:40;;;;;;;4.63;2.30;;;13.00;99.90;;;;;;5007704;28;20447;-76
2023/03/31 12:17:12;;;;;;;7.53;2.87;;;13.00;99.90;;;;;;4992825;28;20472;-76
2023/03/31 12:19:47;;;;;;;5.20;1.80;;;13.00;99.90;;;;;;5012747;28;20474;-76
2023/03/31 12:22:30;;;;;;;6.73;2.03;;;13.00;99.90;;;;;;4995039;28;20957;-76
2023/03/31 12:24:56;;;;;;;5.50;2.40;;;13.00;99.90;;;;;;4976681;28;20463;-76
2023/03/31 12:27:42;;;;;;;6.53;2.50;;;13.00;99.90;;;;;;4992803;28;20409;-76
2023/03/31 12:30:29;;;;;;;5.27;2.43;;;13.00;99.90;;;;;;4994585;28;20448;-76
2023/03/31 12:33:15;;;;;;;8.27;2.20;;;13.00;99.90;;;;;;5007740;28;20454;-76
2023/03/31 12:35:59;;;;;;;6.00;2.23;;;13.10;99.90;;;;;;5007205;28;20429;-75
2023/03/31 12:38:56;;;;;;;9.33;2.40;;;13.10;99.90;;;;;;5011998;28;20420;-76
2023/03/31 12:41:55;;;;;;;8.40;2.43;;;13.10;99.90;;;;;;4992700;28;20979;-75
2023/03/31 12:44:24;;;;;;;8.67;2.40;;;13.10;99.90;;;;;;4981377;28;20476;-75
2023/03/31 12:46:56;;;;;;;6.70;2.50;;;13.10;99.90;;;;;;4973447;28;20438;-76
2023/03/31 12:49:51;;;;;;;5.60;1.97;;;13.10;99.90;;;;;;4988863;28;20443;-76
2023/03/31 12:52:34;;;;;;;6.13;2.40;;;13.10;99.90;;;;;;4997788;28;20473;-76
2023/03/31 12:55:23;;;;;;;5.30;1.63;;;13.10;99.90;;;;;;4999034;28;20428;-76
2023/03/31 12:57:54;;;;;;;5.57;2.90;;;13.10;99.90;;;;;;4996350;28;20452;-75
2023/03/31 13:00:26;;;;;;;8.23;2.70;;;13.10;99.90;;;;;;4999023;28;20455;-76
2023/03/31 13:03:50;;;;;;;10.87;2.90;;;13.10;99.90;;;;;;4992441;28;20431;-76
2023/03/31 13:06:45;;;;;;;11.07;2.30;;;13.20;99.90;;;;;;4959929;28;20818;-76
2023/03/31 13:09:13;;;;;;;10.30;2.00;;;13.20;99.90;;;;;;4986647;28;20423;-77
2023/03/31 13:11:43;;;;;;;5.70;2.20;;;13.20;99.90;;;;;;5006156;28;20458;-75
2023/03/31 13:14:20;;;;;;;9.33;2.40;;;13.20;99.90;;;;;;5001907;28;20478;-74
2023/03/31 13:16:48;;;;;;;4.07;1.93;;;13.20;99.90;;;;;;5009169;28;20459;-75
2023/03/31 13:19:34;;;;;;;7.50;2.67;;;13.20;99.90;;;;;;4996339;28;20906;-76
2023/03/31 13:22:03;;;;;;;6.57;2.37;;;13.20;99.90;;;;;;4983297;28;20444;-76
2023/03/31 13:24:33;;;;;;;7.87;2.33;;;13.30;99.90;;;;;;4987284;28;20440;-76
2023/03/31 13:27:34;;;;;;;5.17;2.33;;;13.30;99.90;;;;;;4997332;28;20492;-76
2023/03/31 13:30:23;;;;;;;5.47;2.23;;;13.30;99.90;;;;;;5000009;28;20491;-76
2023/03/31 13:33:21;;;;;;;8.17;2.07;;;13.30;99.90;;;;;;4992167;28;20484;-76
2023/03/31 13:35:53;;;;;;;7.47;2.17;;;13.30;99.90;;;;;;5007383;28;20435;-76
2023/03/31 13:38:40;;;;;;;6.37;2.10;;;13.30;99.90;;;;;;5003928;28;20432;-76
2023/03/31 13:41:27;;;;;;;5.20;2.10;;;13.40;99.90;;;;;;4988210;28;20442;-75
2023/03/31 13:44:10;;;;;;;3.70;1.57;;;13.40;99.90;;;;;;4994145;28;20450;-76
2023/03/31 13:46:57;;;;;;;4.77;1.63;;;13.40;99.90;;;;;;5006407;28;20442;-76
2023/03/31 13:49:34;;;;;;;6.70;1.70;;;13.40;99.90;;;;;;4992889;28;20450;-76
2023/03/31 13:52:12;;;;;;;6.37;1.60;;;13.40;99.90;;;;;;4990224;28;20957;-76
2023/03/31 13:55:03;;;;;;;4.10;1.80;;;13.40;99.90;;;;;;4991805;28;20429;-76
2023/03/31 13:57:51;;;;;;;5.50;1.77;;;13.50;99.90;;;;;;4978769;28;20807;-76